createdAt,value
2022-10-10T00:02:16.930Z,100471.88
2022-10-10T00:07:18.841Z,100471.66
2022-10-10T00:12:20.200Z,100467.09
2022-10-10T00:17:21.576Z,100458.47
2022-10-10T00:22:22.956Z,100461.41
2022-10-10T00:27:24.318Z,100451.78
2022-10-10T00:32:25.761Z,100458.69
2022-10-10T00:37:27.135Z,100448.03
2022-10-10T00:42:28.508Z,100441.72
2022-10-10T00:47:29.873Z,100444.84
2022-10-10T00:52:31.228Z,100444.84
2022-10-10T00:57:32.585Z,100440.03
2022-10-10T01:02:34.001Z,100437.16
2022-10-10T01:07:35.357Z,100437.72
2022-10-10T01:13:21.612Z,100434.59
2022-10-10T01:18:44.634Z,100429.78
2022-10-10T01:24:20.361Z,100420.75
2022-10-10T01:29:53.689Z,100419.31
2022-10-10T01:34:56.436Z,100420.13
2022-10-10T01:40:04.997Z,100408.97
2022-10-10T01:45:06.760Z,100409.25
2022-10-10T01:50:11.400Z,100392.28
2022-10-10T01:55:46.341Z,100385.94
2022-10-10T02:01:01.092Z,100380.03
2022-10-10T02:06:05.944Z,100371.66
2022-10-10T02:11:10.804Z,100369.72
2022-10-10T02:16:15.483Z,100370.84
2022-10-10T02:21:17.417Z,100353.81
2022-10-10T02:26:18.909Z,100339.88
2022-10-10T02:31:27.159Z,100337.94
2022-10-10T02:36:28.535Z,100332.03
2022-10-10T02:41:29.893Z,100324.81
2022-10-10T02:46:31.255Z,100322.25
2022-10-10T02:51:32.618Z,100310.66
2022-10-10T02:56:34.003Z,100305.66
2022-10-10T03:01:35.553Z,100296.66
2022-10-10T03:06:36.932Z,100291.78
2022-10-10T03:11:38.286Z,100294.69
2022-10-10T03:16:39.649Z,100288.78
2022-10-10T03:21:41.011Z,100287.56
2022-10-10T03:26:42.388Z,100280.38
2022-10-10T03:31:43.763Z,100264.84
2022-10-10T03:36:45.130Z,100260.44
2022-10-10T03:41:46.488Z,100245.13
2022-10-10T03:46:47.849Z,100245.13
2022-10-10T03:51:49.204Z,100238.63
2022-10-10T03:56:50.597Z,100231.28
2022-10-10T04:01:51.949Z,100222.84
2022-10-10T04:06:53.316Z,100219.91
2022-10-10T04:11:54.676Z,100211.47
2022-10-10T04:16:59.690Z,100208.28
2022-10-10T04:22:05.239Z,100207.69
2022-10-10T04:27:09.265Z,100207.81
2022-10-10T04:32:10.625Z,100199.06
2022-10-10T04:37:12.002Z,100199.06
2022-10-10T04:42:13.368Z,100198.34
2022-10-10T04:47:14.765Z,100184.47
2022-10-10T04:52:16.169Z,100181.28
2022-10-10T04:57:17.556Z,100179.53
2022-10-10T05:02:18.917Z,100186.28
2022-10-10T05:07:20.295Z,100181.19
2022-10-10T05:12:21.661Z,100187.84
2022-10-10T05:17:23.017Z,100174.44
2022-10-10T05:22:24.388Z,100165.78
2022-10-10T05:27:26.588Z,100167.66
2022-10-10T05:32:27.999Z,100162.44
2022-10-10T05:37:29.364Z,100157.59
2022-10-10T05:42:30.748Z,100159.22
2022-10-10T05:47:32.119Z,100155.44
2022-10-10T05:52:35.101Z,100143.69
2022-10-10T05:57:36.477Z,100146.69
2022-10-10T06:02:37.872Z,100148.78
2022-10-10T06:07:59.865Z,100146.22
2022-10-10T06:13:00.666Z,100152.16
2022-10-10T06:18:02.037Z,100143.50
2022-10-10T06:23:03.653Z,100155.84
2022-10-10T06:28:05.107Z,100164.97
2022-10-10T06:33:07.411Z,100150.50
2022-10-10T06:38:09.309Z,100159.66
2022-10-10T06:43:13.801Z,100166.06
2022-10-10T06:48:15.281Z,100175.91
2022-10-10T06:53:16.697Z,100173.44
2022-10-10T06:58:18.291Z,100171.19
2022-10-10T07:03:20.217Z,100165.50
2022-10-10T07:08:21.633Z,100168.59
2022-10-10T07:13:23.553Z,100170.59
2022-10-10T07:18:25.008Z,100186.72
2022-10-10T07:23:26.489Z,100174.84
2022-10-10T07:28:28.320Z,100189.00
2022-10-10T07:33:38.043Z,100181.88
2022-10-10T07:38:39.456Z,100187.09
2022-10-10T07:43:40.817Z,100188.88
2022-10-10T07:48:42.185Z,100190.25
2022-10-10T07:53:44.155Z,100186.13
2022-10-10T07:58:45.551Z,100185.88
2022-10-10T08:03:46.920Z,100189.19
2022-10-10T08:08:51.669Z,100196.53
2022-10-10T08:13:53.666Z,100191.81
2022-10-10T08:18:55.024Z,100176.13
2022-10-10T08:23:56.394Z,100178.72
2022-10-10T08:28:57.873Z,100179.56
2022-10-10T08:33:59.269Z,100178.25
2022-10-10T08:39:01.531Z,100184.19
2022-10-10T08:44:13.276Z,100176.75
2022-10-10T08:49:29.690Z,100172.22
2022-10-10T08:54:31.494Z,100173.63
2022-10-10T08:59:35.484Z,100172.91
2022-10-10T09:04:36.934Z,100173.63
2022-10-10T09:09:38.160Z,100186.44
2022-10-10T09:14:48.344Z,100179.94
2022-10-10T09:20:01.756Z,100181.03
2022-10-10T09:25:06.835Z,100170.13
2022-10-10T09:30:17.538Z,100177.72
2022-10-10T09:35:23.200Z,100155.88
2022-10-10T09:40:30.158Z,100160.03
2022-10-10T09:45:36.185Z,100159.31
2022-10-10T09:50:40.438Z,100160.03
2022-10-10T09:55:45.796Z,100155.63
2022-10-10T10:00:47.235Z,100161.44
2022-10-10T10:05:57.268Z,100142.69
2022-10-10T10:10:59.384Z,100158.31
2022-10-10T10:16:11.975Z,100155.13
2022-10-10T10:21:23.814Z,100143.34
2022-10-10T10:26:44.980Z,100149.75
2022-10-10T10:31:52.284Z,100145.97
2022-10-10T10:37:05.638Z,100137.28
2022-10-10T10:42:23.057Z,100136.19
2022-10-10T10:47:34.807Z,100133.22
2022-10-10T10:53:21.070Z,100136.34
2022-10-10T11:05:18.281Z,100118.97
2022-10-10T11:10:19.190Z,100107.66
2022-10-10T11:15:30.807Z,100101.66
2022-10-10T11:20:43.168Z,100079.06
2022-10-10T11:25:51.956Z,100080.66
2022-10-10T11:30:56.143Z,100077.13
2022-10-10T11:36:05.441Z,100079.63
2022-10-10T11:41:35.605Z,100083.94
2022-10-10T11:46:46.829Z,100083.56
2022-10-10T11:52:09.609Z,100077.00
2022-10-10T11:57:22.877Z,100070.47
2022-10-10T12:02:28.031Z,100072.84
2022-10-10T12:07:41.866Z,100070.97
2022-10-10T12:12:45.060Z,100075.84
2022-10-10T12:17:46.420Z,100073.94
2022-10-10T12:22:47.789Z,100055.53
2022-10-10T12:28:04.230Z,100069.91
2022-10-10T12:33:18.952Z,100053.88
2022-10-10T12:38:27.639Z,100053.75
2022-10-10T12:43:42.303Z,100044.22
2022-10-10T12:48:43.713Z,100027.97
2022-10-10T12:53:47.728Z,100034.00
2022-10-10T12:58:49.129Z,100025.91
2022-10-10T13:03:50.561Z,100037.69
2022-10-10T13:08:52.109Z,100051.31
2022-10-10T13:13:55.285Z,100049.75
2022-10-10T13:18:57.694Z,100046.69
2022-10-10T13:24:03.633Z,100058.19
2022-10-10T13:29:34.693Z,100049.41
2022-10-10T13:34:37.302Z,100048.22
2022-10-10T13:39:38.814Z,100035.28
2022-10-10T13:44:50.716Z,100041.81
2022-10-10T13:49:58.799Z,100038.88
2022-10-10T13:55:22.517Z,100044.34
2022-10-10T14:00:24.465Z,100032.00
2022-10-10T14:05:29.129Z,100041.00
2022-10-10T14:10:35.725Z,100035.53
2022-10-10T14:15:44.757Z,100030.81
2022-10-10T14:20:46.576Z,100027.13
2022-10-10T14:25:48.422Z,100025.25
2022-10-10T14:30:50.061Z,100020.34
2022-10-10T14:35:52.160Z,100019.44
2022-10-10T14:40:53.752Z,100020.25
2022-10-10T14:45:55.160Z,100022.38
2022-10-10T14:50:56.685Z,100016.81
2022-10-10T14:55:58.065Z,100014.78
2022-10-10T15:00:59.831Z,100004.75
2022-10-10T15:06:01.343Z,100013.72
2022-10-10T15:11:03.063Z,100012.91
2022-10-10T15:16:04.706Z,100012.22
2022-10-10T15:21:12.223Z,100008.06
2022-10-10T15:26:13.611Z,100015.06
2022-10-10T15:31:15.076Z,100019.81
2022-10-10T15:36:19.083Z,100028.38
2022-10-10T15:41:20.977Z,100037.38
2022-10-10T15:46:23.600Z,100040.34
2022-10-10T15:51:24.966Z,100039.78
2022-10-10T15:56:26.508Z,100041.88
2022-10-10T16:01:28.195Z,100047.25
2022-10-10T16:06:29.606Z,100054.59
2022-10-10T16:11:31.028Z,100057.44
2022-10-10T16:16:32.382Z,100059.22
2022-10-10T16:21:33.749Z,100063.34
2022-10-10T16:26:36.728Z,100066.34
2022-10-10T16:31:39.163Z,100064.34
2022-10-10T16:36:40.528Z,100075.72
2022-10-10T16:41:49.570Z,100074.63
2022-10-10T16:46:51.177Z,100079.41
2022-10-10T16:51:52.552Z,100083.19
2022-10-10T16:56:53.913Z,100092.19
2022-10-10T17:01:55.320Z,100104.53
2022-10-10T17:06:56.680Z,100118.56
2022-10-10T17:11:58.089Z,100116.88
2022-10-10T17:17:14.667Z,100116.03
2022-10-10T17:22:16.212Z,100119.84
2022-10-10T17:27:17.633Z,100124.00
2022-10-10T17:32:19.111Z,100126.97
2022-10-10T17:37:20.473Z,100121.50
2022-10-10T17:42:21.871Z,100121.28
2022-10-10T17:47:23.282Z,100120.06
2022-10-10T17:52:25.109Z,100129.22
2022-10-10T17:57:26.696Z,100124.00
2022-10-10T18:02:28.065Z,100131.81
2022-10-10T18:07:29.470Z,100126.00
2022-10-10T18:12:30.853Z,100132.53
2022-10-10T18:17:32.239Z,100133.72
2022-10-10T18:22:33.668Z,100138.69
2022-10-10T18:27:35.043Z,100149.47
2022-10-10T18:32:36.457Z,100156.63
2022-10-10T18:37:37.937Z,100164.78
2022-10-10T18:42:40.130Z,100155.16
2022-10-10T18:47:41.528Z,100169.78
2022-10-10T18:52:42.889Z,100168.13
2022-10-10T18:57:44.254Z,100161.44
2022-10-10T19:02:45.620Z,100161.31
2022-10-10T19:07:46.977Z,100165.34
2022-10-10T19:12:49.845Z,100181.47
2022-10-10T19:17:51.204Z,100174.88
2022-10-10T19:22:52.571Z,100184.94
2022-10-10T19:27:54.124Z,100179.13
2022-10-10T19:32:55.489Z,100174.38
2022-10-10T19:37:56.841Z,100188.47
2022-10-10T19:42:58.237Z,100183.38
2022-10-10T19:48:00.509Z,100193.22
2022-10-10T19:53:04.917Z,100198.69
2022-10-10T19:58:06.689Z,100208.75
2022-10-10T20:03:08.046Z,100203.91
2022-10-10T20:08:09.405Z,100204.97
2022-10-10T20:13:14.672Z,100201.66
2022-10-10T20:18:16.229Z,100207.09
2022-10-10T20:23:18.661Z,100217.41
2022-10-10T20:28:20.175Z,100214.53
2022-10-10T20:33:21.646Z,100213.03
2022-10-10T20:38:23.005Z,100211.59
2022-10-10T20:43:24.373Z,100217.84
2022-10-10T20:48:25.744Z,100228.94
2022-10-10T20:53:27.100Z,100235.94
2022-10-10T20:58:28.472Z,100239.28
2022-10-10T21:03:30.110Z,100256.22
2022-10-10T21:08:31.465Z,100250.59
2022-10-10T21:13:34.084Z,100258.78
2022-10-10T21:18:35.678Z,100255.88
2022-10-10T21:23:46.441Z,100262.75
2022-10-10T21:28:49.204Z,100271.59
2022-10-10T21:33:50.608Z,100262.56
2022-10-10T21:38:52.795Z,100265.31
2022-10-10T21:43:55.745Z,100271.16
2022-10-10T21:48:57.944Z,100275.75
2022-10-10T21:53:59.332Z,100283.31
2022-10-10T21:59:01.662Z,100285.66
2022-10-10T22:04:03.609Z,100296.66
2022-10-10T22:09:05.796Z,100302.69
2022-10-10T22:14:07.252Z,100297.41
2022-10-10T22:19:08.756Z,100303.09
2022-10-10T22:24:10.112Z,100301.84
2022-10-10T22:29:11.472Z,100315.50
2022-10-10T22:34:12.840Z,100312.56
2022-10-10T22:39:14.894Z,100319.03
2022-10-10T22:44:17.593Z,100318.47
2022-10-10T22:49:18.957Z,100321.13
2022-10-10T22:54:20.322Z,100329.50
2022-10-10T22:59:21.917Z,100340.44
2022-10-10T23:04:23.343Z,100350.59
2022-10-10T23:09:24.717Z,100352.41
2022-10-10T23:14:26.072Z,100363.16
2022-10-10T23:19:27.485Z,100365.81
2022-10-10T23:24:28.853Z,100377.63
2022-10-10T23:29:30.226Z,100380.59
2022-10-10T23:34:31.590Z,100385.81
2022-10-10T23:39:32.945Z,100397.56
2022-10-10T23:44:34.552Z,100396.72
2022-10-10T23:49:35.928Z,100414.53
2022-10-10T23:54:37.348Z,100420.22
